IAD weather

Washington Dulles International Airport
Washington, District of Columbia, United States

Public forecast

Using degrees Fahrenheit for public forecast. Weather courtesy of forecast.io.

METAR (pilot weather report)

Retrieved 2019/02/18 17:52 UTC (14 minutes ago):

KIAD 181752Z 34017G23KT 10SM BKN048 BKN160 BKN250 08/M02 A3002 RMK AO2 PK WND 33029/1705 SLP167 T00781017 10089 20017 53029

TAF (pilot weather forecast)

Retrieved 2019/02/18 18:36 UTC (0 seconds ago):

TAF KIAD 181735Z 1818/1924 30016G34KT P6SM SCT050 BKN150 FM182300 31013G26KT P6SM SCT050 BKN200 FM190500 33009KT P6SM FEW040 SCT250 FM192200 35005KT P6SM FEW150 SCT250